Bel Aire, Kansas
Current Conditions -  °F | °C
As of 10:54 AM on Friday 24 Oct 2014 (Local Time) from KAAO Reporting Station
Clear Clear  
Wind Chill: 65°   Ceiling: Unl
Heat Index: 65°   Visibility: 10mi
Dew Point: 59°   Wind: 9mph
Humidity: 81%   Direction: 200°SSW
Pressure: 30.08"   Gusts: NA
Location:  37.7646°N, 97.2186°W
Report Text: KAAO 241554Z AUTO 20008KT 10SM CLR 18/15 A3008 RMK AO2 SLP180 T01830150 $
Loading
Personal Weather Stations






























Interactive Weather Map
Tropical Storm Tracking
New forecast layout! Learn more

10-Day Weather Forecast

Advertisements
Track Severe Weather on mobile